Time;durP1;ratioP1;P1;durP2;ratioP2;P2;SDS_P1;SDS_P2;PMS_P1;PMS_P2;Temp;Humidity;BMP_temperature;BMP_pressure;BME280_temperature;BME280_humidity;BME280_pressure;Samples;Min_cycle;Max_cycle;Signal;HPM_P1;HPM_P2
2022/06/30 00:00:09;;;;;;;13.57;10.13;;;;;;;21.19;68.19;100934.66;5134922;27;20174;-58
2022/06/30 00:02:34;;;;;;;12.73;9.75;;;;;;;21.31;67.66;100927.06;5134889;27;20558;-57
2022/06/30 00:05:00;;;;;;;14.65;9.55;;;;;;;21.24;67.88;100931.47;5115486;27;20106;-57
2022/06/30 00:07:25;;;;;;;16.17;10.32;;;;;;;21.27;68.10;100934.69;5115742;27;20031;-57
2022/06/30 00:09:51;;;;;;;14.40;10.07;;;;;;;21.16;68.07;100923.31;5133670;27;20031;-58
2022/06/30 00:12:17;;;;;;;13.48;9.75;;;;;;;21.16;68.35;100928.72;5115898;27;20076;-57
2022/06/30 00:14:42;;;;;;;15.52;10.27;;;;;;;21.06;68.22;100920.72;5114424;27;20027;-58
2022/06/30 00:17:08;;;;;;;11.63;9.55;;;;;;;21.15;68.30;100918.88;5116075;27;20029;-57
2022/06/30 00:19:35;;;;;;;11.10;9.18;;;;;;;21.21;67.67;100921.81;5132879;27;20462;-57
2022/06/30 00:22:01;;;;;;;11.60;9.50;;;;;;;21.07;68.05;100923.28;5115165;27;20046;-57
2022/06/30 00:24:26;;;;;;;11.68;9.65;;;;;;;21.08;68.04;100911.44;5134317;27;20114;-58
2022/06/30 00:26:52;;;;;;;13.38;9.95;;;;;;;20.88;69.04;100907.31;5134400;27;20564;-57
2022/06/30 00:29:17;;;;;;;13.65;9.40;;;;;;;21.02;68.57;100912.09;5116009;27;20559;-57
2022/06/30 00:31:43;;;;;;;12.75;9.18;;;;;;;21.05;68.75;100908.22;5133975;27;20049;-57
2022/06/30 00:34:09;;;;;;;13.48;9.05;;;;;;;20.98;68.88;100909.91;5132880;27;20034;-57
2022/06/30 00:36:34;;;;;;;14.20;9.55;;;;;;;21.03;68.77;100903.00;5115158;27;20122;-57
2022/06/30 00:38:59;;;;;;;12.35;9.70;;;;;;;20.81;69.59;100908.97;5133545;27;20029;-57
2022/06/30 00:41:25;;;;;;;11.75;9.95;;;;;;;20.83;69.75;100907.81;5132480;27;20456;-57
2022/06/30 00:43:51;;;;;;;11.38;9.48;;;;;;;20.82;69.83;100908.81;5096609;27;20030;-57
2022/06/30 00:46:16;;;;;;;10.48;9.15;;;;;;;20.92;69.31;100902.44;5133088;27;20110;-57
2022/06/30 00:48:43;;;;;;;13.20;10.52;;;;;;;20.83;69.25;100909.66;5131906;27;20034;-57
2022/06/30 00:51:09;;;;;;;14.70;9.45;;;;;;;20.84;69.01;100919.47;5132293;27;20023;-57
2022/06/30 00:53:39;;;;;;;12.55;8.75;;;;;;;20.80;69.42;100916.25;5132247;27;20034;-57
2022/06/30 00:56:06;;;;;;;12.20;8.65;;;;;;;20.76;69.92;100916.72;5131929;27;20373;-57
2022/06/30 00:58:37;;;;;;;11.48;9.02;;;;;;;20.82;69.65;100916.06;5133593;27;20110;-57
2022/06/30 01:01:04;;;;;;;11.73;9.00;;;;;;;20.71;69.79;100913.66;5133443;27;20031;-57
2022/06/30 01:03:32;;;;;;;15.80;9.10;;;;;;;20.66;69.93;100916.00;5114412;27;20023;-57
2022/06/30 01:06:00;;;;;;;14.15;9.77;;;;;;;20.57;69.76;100918.66;5132431;27;20050;-56
2022/06/30 01:08:26;;;;;;;10.88;9.05;;;;;;;20.48;69.79;100906.06;5114099;27;20434;-56
2022/06/30 01:13:38;;;;;;;9.65;8.70;;;;;;;20.53;69.48;100908.31;5116957;27;20042;-57
2022/06/30 01:16:07;;;;;;;10.68;8.57;;;;;;;20.47;69.81;100914.31;5096099;27;20049;-57
2022/06/30 01:18:36;;;;;;;12.73;9.05;;;;;;;20.19;70.80;100904.53;5098263;27;20563;-57
2022/06/30 01:21:02;;;;;;;11.45;8.98;;;;;;;20.28;70.57;100908.13;5131679;27;20035;-57
2022/06/30 01:23:28;;;;;;;10.63;8.50;;;;;;;20.31;70.27;100918.63;5113706;27;20051;-57
2022/06/30 01:25:54;;;;;;;12.55;9.25;;;;;;;20.34;70.11;100914.75;5130365;27;20053;-57
2022/06/30 01:28:20;;;;;;;12.43;8.23;;;;;;;20.35;70.30;100921.84;5114300;27;20027;-56
2022/06/30 01:30:46;;;;;;;12.38;8.77;;;;;;;20.24;70.84;100927.53;5130882;27;20201;-57
2022/06/30 01:33:11;;;;;;;9.02;8.13;;;;;;;20.22;70.68;100926.81;5132899;27;20030;-57
2022/06/30 01:35:37;;;;;;;10.65;8.27;;;;;;;20.18;70.56;100921.75;5131357;27;20039;-56
2022/06/30 01:38:04;;;;;;;8.68;7.82;;;;;;;20.24;70.59;100930.22;5132013;27;20087;-57
2022/06/30 01:40:36;;;;;;;10.70;8.07;;;;;;;20.25;70.66;100918.41;5132547;27;20050;-57
2022/06/30 01:43:03;;;;;;;11.02;8.13;;;;;;;20.23;70.52;100928.50;5132142;27;20039;-56
2022/06/30 01:45:29;;;;;;;10.73;8.13;;;;;;;20.08;71.23;100918.28;5130454;27;20101;-57
2022/06/30 01:47:55;;;;;;;10.07;7.97;;;;;;;20.18;71.06;100926.31;5131478;27;20110;-57
2022/06/30 01:50:25;;;;;;;13.18;7.55;;;;;;;20.13;71.30;100923.22;5113191;27;20478;-57
2022/06/30 01:52:51;;;;;;;10.55;8.18;;;;;;;19.92;71.52;100915.47;5131109;27;20026;-57
2022/06/30 01:55:16;;;;;;;9.40;8.50;;;;;;;20.02;71.33;100921.59;5130261;27;20720;-56
2022/06/30 01:57:42;;;;;;;11.38;7.80;;;;;;;19.92;72.21;100923.56;5113522;27;20030;-57
2022/06/30 02:00:13;;;;;;;9.82;8.10;;;;;;;20.01;71.53;100924.47;5131764;27;20027;-57
2022/06/30 02:02:39;;;;;;;9.80;8.30;;;;;;;19.91;72.19;100925.41;5130879;27;20064;-57
2022/06/30 02:05:07;;;;;;;10.02;8.93;;;;;;;20.00;71.51;100922.75;5132218;27;20062;-57
2022/06/30 02:07:36;;;;;;;9.77;8.20;;;;;;;19.96;71.46;100930.34;5113192;27;20035;-57
2022/06/30 02:10:09;;;;;;;13.80;8.93;;;;;;;19.94;71.34;100935.03;5132348;27;20027;-57
2022/06/30 02:12:48;;;;;;;9.68;8.30;;;;;;;19.70;72.29;100939.19;5131907;27;20631;-56
2022/06/30 02:15:19;;;;;;;12.00;8.10;;;;;;;19.72;71.88;100937.22;5131982;27;20019;-57
2022/06/30 02:17:46;;;;;;;9.27;8.27;;;;;;;19.67;72.54;100934.13;5111617;27;20019;-56
2022/06/30 02:20:13;;;;;;;9.15;8.05;;;;;;;19.64;72.70;100936.25;5129964;27;20050;-57
2022/06/30 02:22:42;;;;;;;9.93;8.90;;;;;;;19.60;72.04;100933.00;5110821;27;20493;-57
2022/06/30 02:25:08;;;;;;;11.60;8.43;;;;;;;19.52;71.99;100936.47;5131076;27;20382;-57
2022/06/30 02:27:36;;;;;;;9.18;8.25;;;;;;;19.55;72.04;100939.88;5112076;27;20030;-57
2022/06/30 02:30:04;;;;;;;9.18;8.38;;;;;;;19.53;71.57;100950.81;5130444;27;20035;-57
2022/06/30 02:32:29;;;;;;;11.20;9.02;;;;;;;19.51;71.84;100950.97;5113452;28;20023;-57
2022/06/30 02:34:56;;;;;;;10.73;8.70;;;;;;;19.56;71.46;100942.44;5131836;27;20057;-57
2022/06/30 02:37:22;;;;;;;10.85;9.07;;;;;;;19.48;71.77;100948.56;5095480;27;20031;-57
2022/06/30 02:39:47;;;;;;;13.48;9.57;;;;;;;19.54;71.67;100939.03;5095706;28;20097;-57
2022/06/30 02:42:13;;;;;;;12.32;10.02;;;;;;;19.40;71.94;100939.53;5096069;28;20550;-57
2022/06/30 02:44:38;;;;;;;11.95;10.73;;;;;;;19.44;71.53;100938.22;5113144;28;20114;-57
2022/06/30 02:47:05;;;;;;;11.38;10.25;;;;;;;19.37;71.77;100939.84;5112117;28;20036;-57
2022/06/30 02:49:31;;;;;;;11.70;9.52;;;;;;;19.39;71.74;100935.16;5131706;28;20019;-57
2022/06/30 02:51:57;;;;;;;11.55;10.05;;;;;;;19.26;71.75;100941.75;5111570;28;20033;-57
2022/06/30 02:54:25;;;;;;;17.67;10.38;;;;;;;19.33;71.89;100942.00;5130294;28;20019;-57
2022/06/30 02:56:50;;;;;;;12.23;8.85;;;;;;;19.28;71.83;100934.34;5131475;28;20027;-57
2022/06/30 02:59:16;;;;;;;11.65;10.30;;;;;;;19.17;72.38;100934.56;5131362;27;20534;-57
2022/06/30 03:01:42;;;;;;;13.20;9.45;;;;;;;19.14;72.47;100937.56;5130401;27;20377;-56
2022/06/30 03:04:07;;;;;;;11.90;9.95;;;;;;;19.12;72.21;100936.00;5094954;28;20041;-57
2022/06/30 03:06:34;;;;;;;14.10;10.27;;;;;;;19.03;72.46;100935.94;5129603;27;20043;-57
2022/06/30 03:09:00;;;;;;;11.25;10.15;;;;;;;18.98;72.45;100923.91;5131292;28;20106;-56
2022/06/30 03:11:26;;;;;;;16.17;10.23;;;;;;;18.97;72.35;100917.66;5131602;28;20029;-57
2022/06/30 03:13:54;;;;;;;11.27;9.88;;;;;;;19.06;72.51;100934.78;5128427;28;20034;-57
2022/06/30 03:16:20;;;;;;;13.85;10.45;;;;;;;18.92;72.76;100919.09;5130242;28;20029;-57
2022/06/30 03:18:48;;;;;;;16.02;10.73;;;;;;;19.04;72.38;100926.84;5130322;28;20031;-57
2022/06/30 03:21:13;;;;;;;13.93;9.98;;;;;;;18.92;72.81;100929.88;5128646;28;20031;-57
2022/06/30 03:23:39;;;;;;;12.00;10.02;;;;;;;18.87;73.13;100933.00;5112511;28;20107;-57
2022/06/30 03:26:05;;;;;;;10.90;9.80;;;;;;;18.96;72.53;100924.03;5130327;28;20481;-57
2022/06/30 03:28:32;;;;;;;12.27;9.82;;;;;;;18.95;72.44;100914.25;5130918;28;20026;-57
2022/06/30 03:30:58;;;;;;;12.43;9.80;;;;;;;18.98;72.66;100932.81;5129927;28;20031;-57
2022/06/30 03:33:26;;;;;;;18.33;9.05;;;;;;;18.91;72.84;100933.56;5130472;28;20075;-57
2022/06/30 03:35:52;;;;;;;13.32;9.65;;;;;;;18.83;73.22;100924.38;5111560;28;20043;-57
2022/06/30 03:38:17;;;;;;;14.05;9.15;;;;;;;18.85;73.02;100926.91;5130548;28;20130;-57
2022/06/30 03:40:43;;;;;;;13.85;10.05;;;;;;;18.76;73.70;100923.25;5129974;28;20037;-56
2022/06/30 03:43:09;;;;;;;15.48;10.20;;;;;;;18.73;73.53;100930.75;5111984;28;20478;-57
2022/06/30 03:45:35;;;;;;;11.50;10.27;;;;;;;18.66;73.71;100925.13;5131311;28;20038;-57
2022/06/30 03:48:01;;;;;;;13.38;10.38;;;;;;;18.71;73.77;100920.16;5113116;27;20518;-57
2022/06/30 03:50:28;;;;;;;12.35;9.80;;;;;;;18.72;73.72;100923.69;5135247;27;20099;-57
2022/06/30 03:52:53;;;;;;;12.65;10.07;;;;;;;18.66;73.82;100922.44;5133930;27;20047;-57
2022/06/30 03:55:24;;;;;;;11.07;10.05;;;;;;;18.72;73.51;100923.69;5114910;27;20445;-57
2022/06/30 03:57:50;;;;;;;17.70;10.13;;;;;;;18.74;73.47;100922.59;5116409;27;20027;-57
2022/06/30 04:00:16;;;;;;;10.85;9.63;;;;;;;18.61;73.78;100914.78;5134803;27;20110;-57
2022/06/30 04:02:42;;;;;;;10.75;9.65;;;;;;;18.66;73.73;100916.19;5116433;27;20042;-57
2022/06/30 04:05:07;;;;;;;14.55;10.13;;;;;;;18.63;74.04;100919.19;5115311;27;20042;-56
2022/06/30 04:07:44;;;;;;;13.70;10.52;;;;;;;18.68;73.96;100919.56;5134017;27;20046;-56
2022/06/30 04:10:11;;;;;;;11.50;9.80;;;;;;;18.70;74.08;100913.03;5115105;27;20031;-57
2022/06/30 04:12:37;;;;;;;13.10;9.55;;;;;;;18.65;74.33;100912.66;5133433;27;20031;-57
2022/06/30 04:15:03;;;;;;;11.68;9.68;;;;;;;18.56;74.79;100910.81;5133194;27;20478;-57
2022/06/30 04:17:29;;;;;;;15.70;10.32;;;;;;;18.63;74.65;100911.94;5134027;27;20105;-57
2022/06/30 04:19:54;;;;;;;11.63;9.48;;;;;;;18.69;74.73;100916.75;5114070;27;20469;-57
2022/06/30 04:22:20;;;;;;;10.68;9.57;;;;;;;18.63;74.52;100929.97;5132349;27;20019;-57
2022/06/30 04:24:45;;;;;;;11.50;9.98;;;;;;;18.56;74.10;100919.78;5132599;27;20046;-57
2022/06/30 04:27:12;;;;;;;16.13;9.25;;;;;;;18.65;74.61;100938.72;5133669;27;20534;-57
2022/06/30 04:29:40;;;;;;;11.82;10.48;;;;;;;18.66;74.05;100927.81;5098847;27;20088;-57
2022/06/30 04:34:52;;;;;;;10.90;9.82;;;;;;;18.60;73.93;100948.13;5134204;27;20122;-57
2022/06/30 04:37:21;;;;;;;14.73;9.88;;;;;;;18.63;74.02;100994.63;5132354;27;20195;-57
2022/06/30 04:39:46;;;;;;;15.85;10.65;;;;;;;18.59;73.81;100941.03;5115180;27;20027;-57
2022/06/30 04:42:11;;;;;;;14.80;12.27;;;;;;;18.59;74.25;100946.44;5129617;27;20100;-57
2022/06/30 04:44:39;;;;;;;13.93;12.50;;;;;;;18.58;74.87;100986.97;5114520;27;20019;-57
2022/06/30 04:47:05;;;;;;;17.70;13.30;;;;;;;18.58;74.56;100960.03;5113539;27;20431;-57
2022/06/30 04:49:31;;;;;;;20.23;14.63;;;;;;;18.52;74.81;100976.78;5132760;27;20031;-57
2022/06/30 04:51:56;;;;;;;17.52;14.80;;;;;;;18.43;75.46;100989.25;5095514;27;20099;-57
2022/06/30 04:54:23;;;;;;;19.50;14.65;;;;;;;18.40;75.94;100973.41;5113376;27;20080;-57
2022/06/30 04:56:49;;;;;;;16.17;14.48;;;;;;;18.41;75.74;100985.84;5132291;27;20031;-56
2022/06/30 04:59:14;;;;;;;18.60;16.63;;;;;;;18.31;76.10;100983.19;5133033;27;20031;-57
2022/06/30 05:01:40;;;;;;;21.58;17.20;;;;;;;18.34;75.88;100965.91;5115011;27;20058;-57
2022/06/30 05:04:06;;;;;;;21.77;17.33;;;;;;;18.43;76.25;100980.34;5132820;27;20058;-56
2022/06/30 05:06:31;;;;;;;20.05;17.80;;;;;;;18.43;76.06;100975.78;5131624;27;20027;-57
2022/06/30 05:08:57;;;;;;;21.50;17.73;;;;;;;18.50;75.89;100973.38;5113166;27;20038;-57
2022/06/30 05:11:23;;;;;;;19.15;17.27;;;;;;;18.52;75.78;100976.78;5114488;27;20023;-57
2022/06/30 05:13:49;;;;;;;19.67;17.80;;;;;;;18.52;76.15;100979.47;5132366;27;20030;-57
2022/06/30 05:16:14;;;;;;;21.30;19.13;;;;;;;18.61;75.83;100965.13;5114707;27;20018;-57
2022/06/30 05:18:41;;;;;;;21.13;19.00;;;;;;;18.65;75.63;100971.94;5113892;27;20035;-57
2022/06/30 05:21:07;;;;;;;24.48;19.48;;;;;;;18.62;75.92;100974.91;5132359;27;20027;-57
2022/06/30 05:23:35;;;;;;;21.63;19.33;;;;;;;18.69;76.01;100975.19;5112305;27;20031;-57
2022/06/30 05:28:45;;;;;;;23.27;20.73;;;;;;;18.73;75.18;100968.50;5117797;27;20093;-57
2022/06/30 05:31:16;;;;;;;23.73;20.23;;;;;;;18.72;75.68;100981.13;5114599;27;20039;-57
2022/06/30 05:33:46;;;;;;;25.30;19.33;;;;;;;18.79;74.72;100973.31;5133192;27;20447;-57
2022/06/30 05:36:12;;;;;;;25.17;19.85;;;;;;;18.84;74.10;100988.06;5112941;27;20394;-57
2022/06/30 05:38:38;;;;;;;23.05;19.38;;;;;;;18.68;74.85;100974.34;5131468;27;20035;-57
2022/06/30 05:41:04;;;;;;;19.52;17.52;;;;;;;18.85;74.22;100980.81;5113302;27;20047;-57
2022/06/30 05:43:30;;;;;;;21.35;18.15;;;;;;;18.94;73.86;100976.38;5096320;27;20053;-57
2022/06/30 05:45:56;;;;;;;19.90;16.33;;;;;;;18.91;73.41;100985.63;5133194;27;20058;-57
2022/06/30 05:48:21;;;;;;;23.88;15.45;;;;;;;18.92;73.27;100986.50;5110433;27;20045;-56
2022/06/30 05:50:47;;;;;;;24.35;15.93;;;;;;;18.91;73.55;100988.31;5129846;27;20031;-57
2022/06/30 05:53:13;;;;;;;17.83;14.90;;;;;;;18.91;72.90;100979.38;5132739;27;20019;-57
2022/06/30 05:55:39;;;;;;;21.08;14.60;;;;;;;19.00;72.91;100981.19;5129932;27;20030;-56
2022/06/30 05:58:05;;;;;;;15.13;13.57;;;;;;;19.01;72.74;100982.91;5113585;27;20588;-57
2022/06/30 06:00:31;;;;;;;15.70;12.60;;;;;;;19.09;72.19;100991.09;5113503;27;20389;-57
2022/06/30 06:02:58;;;;;;;13.38;11.68;;;;;;;19.10;72.77;100982.00;5113410;27;20024;-57
2022/06/30 06:05:24;;;;;;;15.00;12.02;;;;;;;19.26;72.04;100984.03;5132195;27;20015;-57
2022/06/30 06:07:49;;;;;;;15.57;12.20;;;;;;;19.34;72.02;100976.06;5112986;27;20102;-57
2022/06/30 06:10:15;;;;;;;16.73;12.73;;;;;;;19.18;71.96;100983.97;5096932;27;20466;-57
2022/06/30 06:12:43;;;;;;;15.60;11.98;;;;;;;19.28;72.02;100992.84;5130732;27;20390;-57
2022/06/30 06:15:13;;;;;;;15.85;11.70;;;;;;;19.39;71.93;100987.25;5113633;27;20035;-57
2022/06/30 06:17:46;;;;;;;14.25;10.98;;;;;;;19.43;72.17;100995.88;5132281;27;20388;-57
2022/06/30 06:20:16;;;;;;;15.35;11.50;;;;;;;19.54;71.86;100990.28;5113884;27;20030;-57
2022/06/30 06:22:43;;;;;;;14.23;11.38;;;;;;;19.67;71.77;100993.47;5129739;27;20072;-57
2022/06/30 06:25:09;;;;;;;14.43;10.73;;;;;;;19.67;71.55;100988.09;5113134;27;20023;-57
2022/06/30 06:27:35;;;;;;;16.95;10.98;;;;;;;19.74;71.86;100999.97;5128775;27;20043;-58
2022/06/30 06:30:05;;;;;;;15.75;11.05;;;;;;;19.83;71.43;101000.06;5124986;27;20410;-57
2022/06/30 06:32:31;;;;;;;17.17;11.27;;;;;;;19.87;70.90;100994.19;5128746;27;20026;-57
2022/06/30 06:34:58;;;;;;;16.02;11.45;;;;;;;19.91;70.73;101016.34;5131428;27;20019;-57
2022/06/30 06:37:23;;;;;;;18.15;11.55;;;;;;;19.91;70.59;101006.41;5128765;27;20027;-57
2022/06/30 06:39:52;;;;;;;15.60;10.63;;;;;;;20.01;70.85;101010.88;5130583;27;20470;-57
2022/06/30 06:42:17;;;;;;;16.02;10.63;;;;;;;20.08;70.59;101010.09;5131064;27;20044;-57
2022/06/30 06:44:43;;;;;;;16.67;10.82;;;;;;;20.24;70.26;101003.16;5113590;28;20050;-57
2022/06/30 06:47:08;;;;;;;17.15;10.82;;;;;;;20.25;69.87;101007.56;5113206;28;20118;-57
2022/06/30 06:49:34;;;;;;;13.20;10.55;;;;;;;20.25;70.84;101003.00;5112683;28;20019;-57
2022/06/30 06:52:00;;;;;;;16.75;10.43;;;;;;;20.35;70.35;101014.56;5131004;28;20023;-57
2022/06/30 06:54:25;;;;;;;17.33;10.88;;;;;;;20.41;69.16;101023.88;5096882;28;20475;-57
2022/06/30 06:56:51;;;;;;;17.50;10.23;;;;;;;20.42;69.35;101029.13;5131469;28;20039;-57
2022/06/30 06:59:16;;;;;;;14.55;9.40;;;;;;;20.51;69.43;101024.66;5113328;28;20031;-58
2022/06/30 07:01:43;;;;;;;17.23;9.95;;;;;;;20.52;69.16;101025.50;5131237;28;20027;-57
2022/06/30 07:04:09;;;;;;;16.63;9.98;;;;;;;20.59;69.08;101034.72;5132018;28;20027;-57
2022/06/30 07:06:35;;;;;;;15.18;10.20;;;;;;;20.69;68.63;101040.84;5130867;28;20031;-57
2022/06/30 07:09:01;;;;;;;18.73;10.02;;;;;;;20.70;68.76;101039.00;5097240;28;20035;-57
2022/06/30 07:11:27;;;;;;;16.17;9.75;;;;;;;20.79;68.12;101046.16;5111057;28;20019;-57
2022/06/30 07:13:52;;;;;;;15.57;10.30;;;;;;;20.81;67.24;101054.97;5129745;28;20040;-57
2022/06/30 07:16:20;;;;;;;15.73;8.85;;;;;;;20.85;68.19;101062.63;5130186;28;20019;-57
2022/06/30 07:18:46;;;;;;;17.00;8.95;;;;;;;21.00;68.16;101062.88;5131009;28;20118;-57
2022/06/30 07:21:14;;;;;;;14.05;9.13;;;;;;;21.08;68.13;101070.19;5112052;28;20180;-57
2022/06/30 07:23:40;;;;;;;14.02;8.18;;;;;;;21.21;67.05;101069.75;5114304;27;20023;-57
2022/06/30 07:26:05;;;;;;;14.73;8.05;;;;;;;21.16;66.91;101058.56;5132741;27;20026;-57
2022/06/30 07:28:31;;;;;;;14.27;8.38;;;;;;;21.18;66.04;101068.22;5134935;27;20027;-57
2022/06/30 07:30:57;;;;;;;13.15;7.57;;;;;;;21.25;66.85;101063.84;5116351;27;20034;-57
2022/06/30 07:33:23;;;;;;;14.43;7.30;;;;;;;21.42;66.17;101053.16;5133789;27;20030;-57
2022/06/30 07:35:49;;;;;;;20.42;7.00;;;;;;;21.64;65.63;101059.81;5116106;27;20027;-57
2022/06/30 07:38:14;;;;;;;11.55;6.93;;;;;;;21.76;65.50;101055.78;5099434;27;20504;-57
2022/06/30 07:40:42;;;;;;;16.02;6.40;;;;;;;21.83;64.62;101042.47;5098193;27;20031;-56
2022/06/30 07:43:08;;;;;;;12.18;6.70;;;;;;;21.99;63.31;101058.75;5134623;27;20027;-57
2022/06/30 07:45:34;;;;;;;11.20;6.07;;;;;;;21.95;63.60;101058.22;5114819;27;20139;-57
2022/06/30 07:48:02;;;;;;;9.70;6.03;;;;;;;22.07;63.06;101055.22;5112093;27;20068;-57
2022/06/30 07:50:27;;;;;;;17.73;6.30;;;;;;;22.15;63.05;101058.78;5114966;27;20054;-58
2022/06/30 07:52:53;;;;;;;15.55;6.10;;;;;;;22.19;61.97;101060.16;5129595;27;20335;-58
2022/06/30 07:55:18;;;;;;;11.68;5.55;;;;;;;22.16;62.09;101056.91;5131859;27;20047;-57
2022/06/30 07:57:46;;;;;;;11.30;5.35;;;;;;;22.14;61.34;101046.22;5115549;27;20035;-57
2022/06/30 08:00:13;;;;;;;11.95;5.78;;;;;;;22.32;61.68;101058.81;5130734;27;20386;-57
2022/06/30 08:02:39;;;;;;;10.98;4.90;;;;;;;22.54;61.06;101051.88;5131781;27;20510;-57
2022/06/30 08:05:14;;;;;;;11.02;4.88;;;;;;;22.70;59.22;101048.31;5131929;27;20114;-57
2022/06/30 08:07:42;;;;;;;9.73;4.68;;;;;;;22.87;60.72;101041.84;5129333;27;20498;-58
2022/06/30 08:10:08;;;;;;;12.63;5.20;;;;;;;22.96;59.72;101053.56;5133845;27;20027;-58
2022/06/30 08:12:34;;;;;;;9.70;4.93;;;;;;;23.09;58.41;101048.44;5130645;27;20182;-57
2022/06/30 08:15:00;;;;;;;12.38;5.03;;;;;;;23.11;58.60;101049.94;5132833;27;20389;-57
2022/06/30 08:17:26;;;;;;;9.70;5.15;;;;;;;23.23;58.72;101050.41;5114484;27;20027;-57
2022/06/30 08:19:51;;;;;;;9.18;5.20;;;;;;;23.28;56.27;101056.19;5133254;27;20031;-57
2022/06/30 08:22:17;;;;;;;13.02;5.57;;;;;;;23.33;57.27;101056.50;5112117;27;20502;-58
2022/06/30 08:24:42;;;;;;;8.63;5.20;;;;;;;23.31;57.51;101063.13;5130854;27;20142;-58
2022/06/30 08:27:07;;;;;;;11.65;5.75;;;;;;;23.27;57.63;101069.94;5095728;27;21141;-58
2022/06/30 08:29:33;;;;;;;8.32;4.80;;;;;;;23.33;57.20;101070.06;5108912;27;20069;-57
2022/06/30 08:32:00;;;;;;;9.10;4.70;;;;;;;23.46;56.43;101063.25;5113185;27;20109;-57
2022/06/30 08:34:25;;;;;;;10.50;4.97;;;;;;;23.41;56.77;101071.06;5132216;27;20557;-57
2022/06/30 08:36:51;;;;;;;12.20;5.07;;;;;;;23.53;56.78;101067.81;5112402;27;20114;-57
2022/06/30 08:42:04;;;;;;;8.65;4.65;;;;;;;23.72;54.88;101065.72;5132160;27;20046;-57
2022/06/30 08:44:35;;;;;;;8.55;4.60;;;;;;;23.76;56.04;101077.91;5131010;27;20035;-57
2022/06/30 08:47:02;;;;;;;10.23;5.18;;;;;;;23.84;55.06;101064.28;5132302;27;20379;-57
2022/06/30 08:49:28;;;;;;;11.43;4.90;;;;;;;23.91;54.30;101058.97;5132247;27;20391;-57
2022/06/30 08:51:58;;;;;;;9.50;5.43;;;;;;;23.83;54.46;101061.75;5133580;27;20023;-57
2022/06/30 08:54:30;;;;;;;11.40;5.10;;;;;;;24.01;54.33;101055.00;5133846;27;20098;-57
2022/06/30 08:56:57;;;;;;;11.80;4.80;;;;;;;24.15;53.49;101053.41;5133724;27;20019;-57
2022/06/30 08:59:24;;;;;;;10.35;5.18;;;;;;;24.11;54.10;101048.47;5134051;27;21421;-57
2022/06/30 09:01:50;;;;;;;6.63;3.95;;;;;;;24.37;54.55;101069.88;5133076;27;20019;-57
2022/06/30 09:04:15;;;;;;;9.98;3.80;;;;;;;24.58;52.42;101067.34;5133874;27;20023;-57
2022/06/30 09:06:44;;;;;;;8.48;3.88;;;;;;;24.58;52.04;101069.22;5114710;27;20034;-58
2022/06/30 09:09:11;;;;;;;8.65;3.78;;;;;;;24.58;52.66;101067.34;5133489;27;20493;-57
2022/06/30 09:11:53;;;;;;;9.85;3.75;;;;;;;24.72;53.18;101075.75;5133511;27;20023;-58
2022/06/30 09:14:48;;;;;;;7.63;3.60;;;;;;;25.00;52.87;101073.25;5115324;27;20043;-58
2022/06/30 09:17:15;;;;;;;8.70;3.70;;;;;;;25.00;52.30;101065.94;5130758;27;20077;-57
2022/06/30 09:19:55;;;;;;;8.32;3.30;;;;;;;24.95;52.73;101072.97;5133179;27;20103;-58
2022/06/30 09:22:23;;;;;;;9.00;4.55;;;;;;;24.70;52.85;101082.19;5133027;27;20027;-58
2022/06/30 09:25:20;;;;;;;8.90;4.60;;;;;;;24.82;53.06;101070.88;5133573;27;20431;-58
2022/06/30 09:27:47;;;;;;;20.65;3.97;;;;;;;24.91;52.74;101054.31;5132025;27;20660;-58
2022/06/30 09:30:21;;;;;;;8.23;3.47;;;;;;;25.32;52.60;101072.06;5132301;27;20030;-58
2022/06/30 09:32:53;;;;;;;7.50;3.67;;;;;;;25.43;51.84;101066.16;5132920;27;20027;-58
2022/06/30 09:35:21;;;;;;;7.55;3.55;;;;;;;25.22;49.95;101074.25;5133031;27;20050;-58
2022/06/30 09:38:07;;;;;;;7.28;3.30;;;;;;;25.67;50.98;101075.91;5132385;27;20485;-58
2022/06/30 09:41:00;;;;;;;15.63;3.90;;;;;;;25.60;47.83;101081.25;5132814;27;20466;-58
2022/06/30 09:43:36;;;;;;;6.18;3.10;;;;;;;25.60;49.49;101080.44;5133100;27;20039;-58
2022/06/30 09:46:04;;;;;;;6.60;2.93;;;;;;;25.52;49.40;101078.63;5131927;27;20027;-58
2022/06/30 09:48:31;;;;;;;8.63;3.70;;;;;;;25.56;49.21;101082.69;5132572;27;20280;-58
2022/06/30 09:51:03;;;;;;;10.43;3.60;;;;;;;25.60;49.85;101074.97;5132293;27;20037;-58
2022/06/30 09:53:29;;;;;;;6.43;3.72;;;;;;;25.50;48.75;101072.56;5132936;27;20024;-58
2022/06/30 09:55:56;;;;;;;8.98;3.63;;;;;;;25.85;47.99;101075.50;5114040;27;20030;-58
2022/06/30 09:58:30;;;;;;;6.53;2.80;;;;;;;26.26;48.80;101075.75;5132173;27;20031;-58
2022/06/30 10:00:59;;;;;;;7.47;3.00;;;;;;;26.50;47.82;101080.03;5132686;27;20045;-58
2022/06/30 10:03:25;;;;;;;7.25;3.60;;;;;;;26.45;47.11;101077.00;5132878;27;20019;-58
2022/06/30 10:06:07;;;;;;;8.25;3.30;;;;;;;26.54;48.38;101077.75;5132123;27;20378;-58
2022/06/30 10:08:36;;;;;;;7.25;3.20;;;;;;;26.73;46.76;101082.50;5132275;27;20388;-58
2022/06/30 10:11:02;;;;;;;9.93;2.92;;;;;;;26.70;46.06;101082.91;5132489;27;20057;-58
2022/06/30 10:13:27;;;;;;;8.00;2.78;;;;;;;26.69;45.82;101086.69;5132546;27;20054;-58
2022/06/30 10:15:55;;;;;;;4.60;2.45;;;;;;;26.65;46.46;101088.13;5132289;27;20027;-58
2022/06/30 10:18:26;;;;;;;10.48;2.90;;;;;;;26.55;46.27;101092.22;5132221;27;20515;-58
2022/06/30 10:20:52;;;;;;;6.43;2.75;;;;;;;26.35;46.97;101075.63;5113435;27;20389;-58
2022/06/30 10:23:19;;;;;;;8.00;3.20;;;;;;;26.44;45.93;101078.06;5132566;27;20030;-58
2022/06/30 10:25:47;;;;;;;7.07;3.00;;;;;;;26.46;47.01;101059.59;5132198;27;20050;-58
2022/06/30 10:28:15;;;;;;;8.95;3.53;;;;;;;26.63;46.79;101078.44;5131978;27;20027;-58
2022/06/30 10:30:50;;;;;;;10.03;4.43;;;;;;;26.76;47.19;101070.34;5128643;27;20119;-58
2022/06/30 10:33:31;;;;;;;8.35;3.42;;;;;;;26.65;47.53;101079.94;5128560;27;20038;-58
2022/06/30 10:36:05;;;;;;;8.90;3.58;;;;;;;26.48;47.28;101075.78;5111867;27;20046;-58
2022/06/30 10:39:08;;;;;;;8.50;3.05;;;;;;;26.81;48.33;101077.97;5130915;27;20054;-58
2022/06/30 10:41:43;;;;;;;9.15;3.22;;;;;;;27.02;47.01;101072.44;5115254;27;20043;-58
2022/06/30 10:44:12;;;;;;;9.57;3.50;;;;;;;27.17;46.97;101073.19;5112181;28;20023;-58
2022/06/30 10:46:56;;;;;;;5.22;3.08;;;;;;;27.51;44.58;101078.88;5113126;28;20114;-58
2022/06/30 10:49:52;;;;;;;7.68;2.80;;;;;;;27.68;44.79;101082.06;5088137;28;20027;-58
2022/06/30 10:52:22;;;;;;;8.18;2.80;;;;;;;27.87;45.29;101070.41;5086690;28;20024;-58
2022/06/30 10:54:47;;;;;;;7.78;2.92;;;;;;;28.03;45.46;101075.53;5087914;28;20040;-58
2022/06/30 10:57:13;;;;;;;6.38;2.58;;;;;;;27.77;44.38;101062.59;5088018;28;20491;-58
2022/06/30 10:59:43;;;;;;;5.80;2.50;;;;;;;27.62;44.61;101070.94;5090803;28;20048;-58
2022/06/30 11:02:26;;;;;;;9.32;2.20;;;;;;;27.42;44.63;101074.63;5092055;28;20055;-58
2022/06/30 11:05:23;;;;;;;7.78;2.40;;;;;;;27.45;45.18;101086.00;5074678;28;20086;-58
2022/06/30 11:07:48;;;;;;;7.78;2.92;;;;;;;27.31;43.97;101082.31;5092105;28;20460;-57
2022/06/30 11:10:18;;;;;;;5.50;2.42;;;;;;;27.07;45.67;101080.06;5074348;28;20112;-57
2022/06/30 11:12:49;;;;;;;8.35;3.03;;;;;;;27.00;44.37;101073.69;5091318;28;20051;-57
2022/06/30 11:15:16;;;;;;;5.82;2.67;;;;;;;27.28;43.95;101074.53;5092871;28;20036;-57
2022/06/30 11:17:42;;;;;;;8.30;2.45;;;;;;;27.25;44.62;101069.47;5073364;28;20105;-58
2022/06/30 11:20:14;;;;;;;8.27;3.08;;;;;;;27.31;43.85;101065.09;5074070;28;20094;-57
2022/06/30 11:22:41;;;;;;;4.90;2.08;;;;;;;27.38;45.65;101055.91;5090472;28;20040;-57
2022/06/30 11:25:09;;;;;;;7.65;2.60;;;;;;;27.36;45.24;101062.63;5073422;28;20033;-57
2022/06/30 11:27:36;;;;;;;6.47;2.70;;;;;;;27.36;45.88;101060.72;5073165;28;20047;-57
2022/06/30 11:30:05;;;;;;;6.10;2.80;;;;;;;27.04;46.44;101059.44;5074087;28;20100;-57